Time;durP1;ratioP1;P1;durP2;ratioP2;P2;SDS_P1;SDS_P2;PMS_P1;PMS_P2;Temp;Humidity;BMP_temperature;BMP_pressure;BME280_temperature;BME280_humidity;BME280_pressure;Samples;Min_cycle;Max_cycle;Signal;HPM_P1;HPM_P2
2022/11/17 07:36:22;;;;;;;35.38;8.30;;;;;;;17.35;90.40;98753.41;5580786;23;20057;-59
2022/11/17 07:38:51;;;;;;;31.23;6.60;;;;;;;17.39;90.52;98748.53;4860172;29;20045;-65
2022/11/17 07:41:20;;;;;;;43.47;8.07;;;;;;;17.43;90.17;98747.16;4865732;29;20050;-65
2022/11/17 07:43:49;;;;;;;40.22;9.15;;;;;;;17.49;90.29;98751.03;4865230;29;20057;-56
2022/11/17 07:46:18;;;;;;;92.85;12.88;;;;;;;17.53;90.80;98755.03;4859317;29;20477;-55
2022/11/17 07:48:47;;;;;;;152.35;20.10;;;;;;;17.50;88.40;98758.94;4865413;29;20113;-56
2022/11/17 07:51:16;;;;;;;113.80;21.20;;;;;;;17.13;75.78;98757.66;4865363;29;20042;-58
2022/11/17 07:53:46;;;;;;;227.40;28.05;;;;;;;17.16;86.27;98765.38;4864684;29;20439;-56
2022/11/17 07:56:15;;;;;;;176.02;23.48;;;;;;;17.24;89.52;98764.53;4864987;29;20056;-58
2022/11/17 07:58:43;;;;;;;188.23;23.95;;;;;;;17.32;90.12;98766.38;4868795;29;20057;-59
2022/11/17 08:01:14;;;;;;;154.48;24.15;;;;;;;17.39;90.66;98759.31;4883707;29;20097;-62
2022/11/17 08:03:43;;;;;;;139.95;21.98;;;;;;;17.44;90.75;98756.91;4883790;29;20056;-58
2022/11/17 08:06:12;;;;;;;136.82;21.08;;;;;;;17.49;91.00;98761.81;4883807;29;20116;-58
2022/11/17 08:08:41;;;;;;;121.15;20.05;;;;;;;17.52;91.24;98761.44;4882711;29;20136;-58
2022/11/17 08:11:12;;;;;;;121.35;19.65;;;;;;;17.55;91.49;98761.09;4883710;29;20481;-53
2022/11/17 08:13:41;;;;;;;168.27;20.85;;;;;;;17.58;92.91;98756.22;4883437;29;20124;-49
2022/11/17 08:16:11;;;;;;;124.95;20.05;;;;;;;17.63;92.63;98759.22;4883220;29;20041;-52
2022/11/17 08:18:40;;;;;;;117.47;18.70;;;;;;;17.70;92.55;98765.63;4883912;29;20133;-48
2022/11/17 08:21:14;;;;;;;114.15;18.80;;;;;;;17.73;92.92;98781.47;4883842;29;20057;-57
2022/11/17 08:23:43;;;;;;;108.18;18.10;;;;;;;17.73;93.43;98781.47;4883596;29;20063;-53
2022/11/17 08:26:14;;;;;;;131.77;20.05;;;;;;;17.71;93.81;98780.81;4883187;29;20120;-52
2022/11/17 08:28:42;;;;;;;136.32;20.52;;;;;;;17.74;94.45;98783.13;4883536;29;20053;-55
2022/11/17 08:31:11;;;;;;;103.30;16.90;;;;;;;17.78;95.11;98786.34;4883200;29;20418;-56
2022/11/17 08:33:40;;;;;;;108.50;17.13;;;;;;;17.81;94.67;98787.84;4883027;29;20053;-53
2022/11/17 08:36:08;;;;;;;122.72;17.98;;;;;;;17.77;93.83;98784.69;4881853;29;20103;-53
2022/11/17 08:38:37;;;;;;;114.72;20.52;;;;;;;17.77;94.57;98786.53;4883160;29;20041;-50
2022/11/17 08:41:08;;;;;;;119.68;19.42;;;;;;;17.77;94.33;98797.31;4883282;29;20419;-52
2022/11/17 08:43:38;;;;;;;120.43;19.25;;;;;;;17.76;95.66;98796.47;4883040;29;20065;-51
2022/11/17 08:46:12;;;;;;;184.13;23.77;;;;;;;17.76;94.76;98790.22;4883340;29;20056;-47
2022/11/17 08:48:40;;;;;;;192.40;27.00;;;;;;;17.77;95.15;98789.22;4882608;29;20451;-48
2022/11/17 08:51:09;;;;;;;158.10;22.95;;;;;;;17.77;95.32;98790.06;4882556;29;20060;-54
2022/11/17 08:53:38;;;;;;;161.93;23.35;;;;;;;17.82;96.23;98800.31;4883086;29;20053;-56
2022/11/17 08:56:07;;;;;;;134.48;21.00;;;;;;;17.85;95.60;98805.34;4882628;29;20064;-53
2022/11/17 08:58:40;;;;;;;133.95;20.40;;;;;;;17.84;96.29;98803.69;4882733;29;20056;-56
2022/11/17 09:01:09;;;;;;;139.85;20.08;;;;;;;17.85;95.89;98816.16;4881785;29;20057;-53
2022/11/17 09:03:38;;;;;;;113.97;19.08;;;;;;;17.82;96.15;98813.81;4882788;29;20403;-55
2022/11/17 09:06:07;;;;;;;108.85;17.70;;;;;;;17.84;96.20;98819.84;4882052;29;20059;-53
2022/11/17 09:08:36;;;;;;;161.18;22.33;;;;;;;17.87;97.32;98811.44;4882389;29;20147;-56
2022/11/17 09:11:15;;;;;;;164.82;21.15;;;;;;;17.90;97.22;98813.78;4882776;29;20053;-52
2022/11/17 09:13:45;;;;;;;116.38;20.13;;;;;;;17.92;97.39;98819.84;4882459;29;20045;-55
2022/11/17 09:16:15;;;;;;;114.68;19.17;;;;;;;17.93;97.42;98818.81;4882316;29;20119;-50
2022/11/17 09:18:44;;;;;;;121.75;17.33;;;;;;;17.96;97.98;98829.28;4882460;29;20073;-50
2022/11/17 09:21:15;;;;;;;135.57;19.48;;;;;;;18.00;97.86;98819.81;4881904;29;20223;-50
2022/11/17 09:23:43;;;;;;;175.57;21.58;;;;;;;18.03;97.29;98819.47;4882240;29;20447;-51
2022/11/17 09:26:14;;;;;;;186.20;21.13;;;;;;;18.02;99.29;98824.00;4882343;29;20060;-57
2022/11/17 09:28:44;;;;;;;139.15;20.45;;;;;;;18.06;96.96;98829.91;4882175;29;20454;-51
2022/11/17 09:31:17;;;;;;;144.27;18.40;;;;;;;18.06;96.72;98832.63;4882094;29;20075;-54
2022/11/17 09:33:45;;;;;;;;;;;;;;;18.01;95.71;98826.88;4882559;29;20045;-51
2022/11/17 09:36:15;;;;;;;122.45;16.85;;;;;;;17.99;95.44;98828.94;4881993;29;19923;-53
2022/11/17 09:38:45;;;;;;;116.07;16.20;;;;;;;17.97;96.06;98836.34;4881805;29;20041;-54
2022/11/17 09:41:28;;;;;;;96.63;16.05;;;;;;;17.95;96.31;98832.97;4882076;29;20063;-50
2022/11/17 09:44:12;;;;;;;94.82;15.07;;;;;;;17.94;95.69;98831.28;4882330;29;20110;-50
2022/11/17 09:46:55;;;;;;;84.30;14.77;;;;;;;17.94;95.85;98820.50;4881746;29;20067;-51
2022/11/17 09:49:34;;;;;;;86.95;14.15;;;;;;;18.00;95.06;98817.13;4881797;29;20097;-52
2022/11/17 09:52:13;;;;;;;93.28;14.35;;;;;;;17.99;94.96;98804.66;4880911;29;20052;-50
2022/11/17 09:54:45;;;;;;;79.13;14.57;;;;;;;18.00;95.22;98800.94;4881435;29;20041;-53
2022/11/17 09:57:22;;;;;;;83.25;14.43;;;;;;;18.01;95.08;98802.59;4881735;29;20096;-53
2022/11/17 10:00:02;;;;;;;82.40;13.90;;;;;;;17.97;94.79;98795.91;4882053;29;20071;-55
2022/11/17 10:02:33;;;;;;;59.03;13.10;;;;;;;18.01;94.68;98791.81;4881682;29;20048;-54
2022/11/17 10:05:03;;;;;;;59.90;12.48;;;;;;;18.02;94.33;98796.19;4881753;29;20378;-52
2022/11/17 10:07:34;;;;;;;61.85;12.13;;;;;;;18.01;94.46;98797.22;4881535;29;20083;-58
2022/11/17 10:10:05;;;;;;;63.58;12.07;;;;;;;18.01;94.40;98787.25;4881855;29;20128;-59
2022/11/17 10:12:42;;;;;;;57.85;11.90;;;;;;;18.02;94.67;98794.34;4881415;29;20049;-58
2022/11/17 10:15:22;;;;;;;69.30;12.82;;;;;;;18.06;94.66;98796.72;4881622;29;20060;-59
2022/11/17 10:17:56;;;;;;;60.13;11.82;;;;;;;18.06;94.27;98794.00;4881164;29;20049;-58
2022/11/17 10:20:26;;;;;;;60.22;12.02;;;;;;;18.02;94.52;98798.91;4881615;29;20074;-54
2022/11/17 10:22:56;;;;;;;52.13;11.40;;;;;;;18.04;94.09;98796.84;4881519;29;20045;-58
2022/11/17 10:25:37;;;;;;;59.70;11.07;;;;;;;18.07;94.01;98793.00;4880140;29;20135;-54
2022/11/17 10:28:09;;;;;;;53.75;11.18;;;;;;;18.07;94.37;98793.00;4862861;29;20049;-55
2022/11/17 10:30:38;;;;;;;46.95;11.00;;;;;;;18.07;94.23;98793.81;4862978;29;20469;-57
2022/11/17 10:33:13;;;;;;;49.78;10.30;;;;;;;18.08;94.39;98797.38;4861883;29;20053;-56
2022/11/17 10:35:56;;;;;;;50.17;10.57;;;;;;;18.08;95.00;98798.19;4862734;29;20041;-62
2022/11/17 10:38:28;;;;;;;;;;;;;;;18.06;94.85;98802.94;4863187;29;20059;-62
2022/11/17 10:40:59;;;;;;;41.00;9.25;;;;;;;18.06;94.83;98802.09;4862831;29;19938;-59
2022/11/17 10:43:30;;;;;;;44.45;10.15;;;;;;;18.05;94.62;98806.66;4862855;29;20412;-60
2022/11/17 10:46:04;;;;;;;47.03;10.25;;;;;;;18.09;94.68;98797.19;4862362;29;20054;-60
2022/11/17 10:48:36;;;;;;;55.25;10.60;;;;;;;18.10;94.75;98808.81;4863005;29;20065;-59
2022/11/17 10:51:08;;;;;;;43.00;9.45;;;;;;;18.10;94.29;98809.66;4862746;29;20042;-57
2022/11/17 10:53:38;;;;;;;43.97;10.25;;;;;;;18.10;94.40;98798.88;4862955;29;20065;-61
2022/11/17 10:56:15;;;;;;;41.00;9.13;;;;;;;18.13;94.60;98814.69;4862793;29;20053;-59
2022/11/17 10:59:01;;;;;;;40.58;9.75;;;;;;;18.15;93.99;98806.44;4862881;29;20057;-61
2022/11/17 11:01:43;;;;;;;35.65;8.98;;;;;;;18.16;93.59;98810.81;4862352;29;20063;-51
2022/11/17 11:04:30;;;;;;;34.78;8.82;;;;;;;18.21;93.62;98816.53;4862886;29;20061;-54
2022/11/17 11:07:11;;;;;;;36.80;8.40;;;;;;;18.16;93.95;98814.38;4862789;29;20053;-54
2022/11/17 11:09:50;;;;;;;32.28;8.90;;;;;;;18.18;93.58;98817.72;4862466;29;20053;-60
2022/11/17 11:12:24;;;;;;;31.92;8.25;;;;;;;18.16;93.75;98811.66;4862526;29;20081;-58
2022/11/17 11:14:56;;;;;;;33.95;7.88;;;;;;;18.16;94.24;98814.38;4862570;29;20050;-59
2022/11/17 11:17:28;;;;;;;34.05;9.10;;;;;;;18.18;93.69;98806.94;4862461;29;20057;-61
2022/11/17 11:19:59;;;;;;;35.08;8.30;;;;;;;18.22;93.81;98802.84;4862496;29;20102;-56
2022/11/17 11:22:36;;;;;;;29.73;7.70;;;;;;;18.22;93.69;98808.25;4862756;29;20128;-57
2022/11/17 11:25:16;;;;;;;31.33;8.75;;;;;;;18.21;93.74;98809.25;4862706;29;20136;-56
2022/11/17 11:28:10;;;;;;;32.28;8.40;;;;;;;18.23;94.09;98799.13;4862250;29;20467;-58
2022/11/17 11:30:47;;;;;;;25.65;6.85;;;;;;;18.24;94.09;98811.63;4865727;29;20060;-56
2022/11/17 11:33:27;;;;;;;24.30;7.60;;;;;;;18.23;94.36;98812.63;4866000;29;20114;-56
2022/11/17 11:36:29;;;;;;;33.03;8.05;;;;;;;18.24;94.34;98811.63;4865338;29;20140;-48
2022/11/17 11:39:03;;;;;;;26.27;7.35;;;;;;;18.30;95.31;98821.69;4865878;29;20111;-62
2022/11/17 11:41:49;;;;;;;27.55;7.05;;;;;;;18.35;95.53;98821.19;4865568;29;20053;-62
2022/11/17 11:44:34;;;;;;;25.52;6.70;;;;;;;18.44;95.66;98824.69;4865520;29;20061;-53
2022/11/17 11:47:27;;;;;;;21.92;7.55;;;;;;;18.52;95.39;98819.22;4865745;29;20053;-60
2022/11/17 11:50:02;;;;;;;26.13;6.78;;;;;;;18.57;94.72;98814.16;4865409;29;20500;-61
2022/11/17 11:55:21;;;;;;;26.83;7.22;;;;;;;18.64;94.12;98807.03;5291882;23;19928;-59
2022/11/17 11:57:57;;;;;;;28.42;6.63;;;;;;;18.67;94.68;98805.84;4856959;29;20054;-60
2022/11/17 12:00:26;;;;;;;30.00;7.03;;;;;;;18.68;94.57;98813.75;4846850;29;20467;-62
2022/11/17 12:03:04;;;;;;;25.83;7.18;;;;;;;18.65;95.17;98808.72;4846862;29;20050;-61
2022/11/17 12:05:39;;;;;;;28.02;7.07;;;;;;;18.68;95.85;98807.53;4846991;29;20438;-60
2022/11/17 12:08:13;;;;;;;25.23;6.60;;;;;;;18.68;95.20;98807.53;4846758;29;20371;-60
2022/11/17 12:10:52;;;;;;;23.70;6.38;;;;;;;18.70;95.41;98808.19;4846982;29;20122;-60
2022/11/17 12:13:24;;;;;;;19.60;6.05;;;;;;;18.74;95.78;98812.22;4845708;29;20157;-60
2022/11/17 12:16:19;;;;;;;20.98;6.53;;;;;;;18.79;95.69;98821.44;4846694;29;20372;-60
2022/11/17 12:18:48;;;;;;;19.98;6.45;;;;;;;18.81;95.56;98819.41;4846628;29;20473;-60
2022/11/17 12:21:23;;;;;;;23.23;7.13;;;;;;;18.82;95.89;98821.13;4846683;29;20085;-61
2022/11/17 12:24:16;;;;;;;23.58;7.45;;;;;;;18.82;95.80;98815.72;4846152;29;20129;-63
2022/11/17 12:26:46;;;;;;;20.48;7.15;;;;;;;18.81;95.41;98808.59;4842366;29;20058;-60
2022/11/17 12:29:29;;;;;;;23.25;7.28;;;;;;;18.76;96.28;98805.63;4846286;29;20062;-62
2022/11/17 12:32:00;;;;;;;22.05;7.15;;;;;;;18.74;95.96;98815.75;4846514;29;20058;-62
2022/11/17 12:34:32;;;;;;;21.67;7.32;;;;;;;18.72;96.52;98819.63;4846144;29;20364;-62
2022/11/17 12:37:18;;;;;;;23.85;6.75;;;;;;;18.69;97.28;98831.66;4845233;29;20352;-62
2022/11/17 12:40:33;;;;;;;19.10;6.97;;;;;;;18.67;96.97;98822.88;4844942;29;20073;-62
2022/11/17 12:43:23;;;;;;;21.35;6.45;;;;;;;18.73;97.02;98824.88;4845748;29;20080;-63
2022/11/17 12:46:02;;;;;;;21.50;6.40;;;;;;;18.69;97.50;98828.94;4844948;29;20483;-62
2022/11/17 12:48:33;;;;;;;17.13;6.60;;;;;;;18.73;97.73;98816.78;4845022;29;20088;-60
2022/11/17 12:51:10;;;;;;;21.92;6.50;;;;;;;18.78;97.07;98825.19;4845918;29;20455;-62
2022/11/17 12:53:52;;;;;;;19.00;6.18;;;;;;;18.83;96.31;98821.94;4845853;29;20054;-61
2022/11/17 12:56:36;;;;;;;20.63;6.45;;;;;;;18.82;96.37;98825.69;4845331;29;20058;-56
2022/11/17 12:59:45;;;;;;;19.92;5.88;;;;;;;18.80;95.93;98814.19;4878356;29;20101;-63
2022/11/17 13:02:26;;;;;;;18.25;6.20;;;;;;;18.77;96.31;98814.56;4882748;29;20060;-61
2022/11/17 13:04:59;;;;;;;18.20;6.10;;;;;;;18.76;96.52;98819.13;4882936;29;20114;-64
2022/11/17 13:07:28;;;;;;;;;;;;;;;18.76;96.50;98818.28;4883345;29;20128;-65
2022/11/17 13:09:58;;;;;;;12.35;5.13;;;;;;;18.69;96.92;98815.44;4881648;29;19928;-63
2022/11/17 13:12:29;;;;;;;16.92;6.22;;;;;;;18.69;97.21;98820.84;4882787;29;20065;-57
2022/11/17 13:15:01;;;;;;;15.52;6.22;;;;;;;18.67;97.22;98825.59;4881215;29;20057;-57
2022/11/17 13:17:33;;;;;;;15.57;5.78;;;;;;;18.71;97.44;98823.34;4882343;29;20449;-55
2022/11/17 13:20:04;;;;;;;17.15;6.18;;;;;;;18.73;97.61;98833.00;4882692;29;20057;-55
2022/11/17 13:22:32;;;;;;;16.65;5.32;;;;;;;18.79;97.50;98826.84;4882400;29;20052;-58
2022/11/17 13:25:22;;;;;;;15.35;6.10;;;;;;;18.82;96.55;98829.22;4882236;29;20055;-55
2022/11/17 13:27:51;;;;;;;17.80;5.82;;;;;;;18.79;96.67;98834.97;4882280;29;20462;-57
2022/11/17 13:30:32;;;;;;;15.85;5.90;;;;;;;18.79;97.18;98845.75;4881353;29;20076;-58
2022/11/17 13:33:02;;;;;;;19.20;5.73;;;;;;;18.75;96.95;98843.63;4882210;29;20056;-58
2022/11/17 13:35:33;;;;;;;13.35;5.90;;;;;;;18.72;97.16;98843.94;4882101;29;20059;-58
2022/11/17 13:38:05;;;;;;;14.55;5.78;;;;;;;18.70;97.26;98848.69;4882171;29;20041;-60
2022/11/17 13:40:35;;;;;;;12.75;5.40;;;;;;;18.68;97.50;98856.97;4882361;29;20064;-63
2022/11/17 13:43:07;;;;;;;14.00;5.70;;;;;;;18.69;97.58;98853.25;4881160;29;20097;-57
2022/11/17 13:45:37;;;;;;;14.50;6.13;;;;;;;18.69;96.06;98847.84;4882192;29;20101;-60
2022/11/17 13:48:07;;;;;;;18.58;6.25;;;;;;;18.73;97.24;98854.59;4881821;29;20059;-61
2022/11/17 13:50:38;;;;;;;12.65;5.43;;;;;;;18.77;97.60;98861.31;4880968;29;20480;-60
2022/11/17 13:53:24;;;;;;;13.65;5.30;;;;;;;18.77;97.34;98855.91;4881635;29;20057;-60
2022/11/17 13:55:53;;;;;;;13.93;5.22;;;;;;;18.75;97.36;98847.16;4879537;29;20470;-59
2022/11/17 13:58:31;;;;;;;16.13;5.07;;;;;;;18.73;96.93;98851.91;4863341;29;20060;-59
2022/11/17 14:01:01;;;;;;;14.82;5.18;;;;;;;18.70;97.52;98849.53;4863509;29;20061;-60
2022/11/17 14:03:38;;;;;;;14.23;5.65;;;;;;;18.67;97.10;98844.50;4863495;29;20050;-60
2022/11/17 14:06:09;;;;;;;11.68;5.18;;;;;;;18.64;97.72;98850.22;4862886;29;20556;-60
2022/11/17 14:08:39;;;;;;;14.20;5.07;;;;;;;18.65;98.18;98851.09;4863203;29;20057;-59
2022/11/17 14:11:20;;;;;;;14.27;5.22;;;;;;;18.65;97.96;98861.91;4863466;29;20243;-59
2022/11/17 14:13:52;;;;;;;12.50;5.32;;;;;;;18.66;98.18;98856.31;4875228;29;20105;-58
2022/11/17 14:16:28;;;;;;;11.18;5.10;;;;;;;18.65;98.10;98849.25;4881952;29;20109;-59
2022/11/17 14:19:00;;;;;;;12.63;5.20;;;;;;;18.65;98.10;98851.09;4881586;29;20479;-59
2022/11/17 14:21:30;;;;;;;18.25;5.75;;;;;;;18.69;97.91;98842.44;4881348;29;20063;-59
2022/11/17 14:24:05;;;;;;;14.07;5.10;;;;;;;18.73;97.48;98838.38;4880532;29;20075;-60
2022/11/17 14:26:34;;;;;;;12.02;4.97;;;;;;;18.79;97.25;98836.81;4881723;29;20423;-59
2022/11/17 14:29:02;;;;;;;10.88;4.95;;;;;;;18.75;96.56;98836.34;4881683;29;20073;-60
2022/11/17 14:31:34;;;;;;;11.25;4.88;;;;;;;18.71;95.99;98840.41;4881867;29;20052;-60
2022/11/17 14:34:03;;;;;;;10.00;4.85;;;;;;;18.70;96.59;98843.28;4881654;29;20057;-60
2022/11/17 14:36:32;;;;;;;13.00;4.90;;;;;;;18.67;96.87;98836.38;4880483;29;20052;-60
2022/11/17 14:39:01;;;;;;;11.77;5.15;;;;;;;18.65;96.80;98841.13;4881141;29;20408;-60
2022/11/17 14:41:30;;;;;;;9.80;4.72;;;;;;;18.64;96.30;98850.22;4880388;29;20049;-60
2022/11/17 14:43:59;;;;;;;13.45;5.38;;;;;;;18.64;96.66;98852.94;4881563;29;20064;-60
2022/11/17 14:46:28;;;;;;;11.50;5.20;;;;;;;18.59;96.79;98852.59;4881611;29;20060;-60
2022/11/17 14:48:58;;;;;;;9.80;5.13;;;;;;;18.59;97.50;98863.41;4881237;29;20467;-60
2022/11/17 14:51:27;;;;;;;9.18;4.85;;;;;;;18.60;98.09;98856.97;4881729;29;20072;-58
2022/11/17 14:53:56;;;;;;;13.88;5.13;;;;;;;18.60;97.63;98857.81;4881492;29;20152;-59
2022/11/17 14:56:25;;;;;;;18.67;5.60;;;;;;;18.65;95.93;98854.63;4880845;29;20077;-58
2022/11/17 14:58:57;;;;;;;10.88;4.65;;;;;;;18.64;97.21;98855.63;4881473;29;20436;-59
2022/11/17 15:01:29;;;;;;;9.52;4.97;;;;;;;18.68;97.51;98859.69;4844812;29;20106;-57
2022/11/17 15:04:00;;;;;;;10.13;4.63;;;;;;;18.73;97.49;98854.59;4846834;29;20384;-58
2022/11/17 15:06:49;;;;;;;15.27;5.40;;;;;;;18.79;96.99;98848.47;4846711;29;20062;-59
2022/11/17 15:09:19;;;;;;;14.57;5.45;;;;;;;18.80;96.63;98844.75;4847931;29;20058;-59
2022/11/17 15:11:48;;;;;;;9.85;4.90;;;;;;;18.81;97.06;98837.47;4847637;29;20077;-58
2022/11/17 15:14:16;;;;;;;10.90;4.93;;;;;;;18.77;97.14;98845.09;4847559;29;20041;-58
2022/11/17 15:16:46;;;;;;;11.30;4.55;;;;;;;18.83;97.03;98841.69;4847539;29;20069;-59
2022/11/17 15:19:16;;;;;;;25.88;5.75;;;;;;;18.89;96.63;98848.22;4847358;29;20132;-56
2022/11/17 15:21:45;;;;;;;11.93;4.65;;;;;;;18.83;97.39;98857.91;4847523;29;20061;-58
2022/11/17 15:24:14;;;;;;;9.80;4.57;;;;;;;18.86;97.95;98859.41;4847486;29;20094;-58
2022/11/17 15:26:43;;;;;;;10.98;4.45;;;;;;;18.95;97.46;98849.38;4847410;29;20073;-59
2022/11/17 15:29:15;;;;;;;9.90;4.57;;;;;;;19.04;97.46;98851.00;4847136;29;20050;-57
2022/11/17 15:31:44;;;;;;;11.10;4.88;;;;;;;19.03;97.33;98855.56;4847415;29;20050;-60
2022/11/17 15:34:14;;;;;;;9.68;4.45;;;;;;;19.03;97.11;98855.56;4847272;29;20129;-59
2022/11/17 15:36:49;;;;;;;11.45;4.70;;;;;;;19.12;96.56;98853.66;4847204;29;20467;-61
2022/11/17 15:39:19;;;;;;;9.25;4.85;;;;;;;19.15;95.97;98853.28;4847238;29;20056;-61
2022/11/17 15:41:49;;;;;;;10.73;5.55;;;;;;;19.15;96.10;98850.59;4847461;29;20065;-60
2022/11/17 15:44:18;;;;;;;10.88;5.53;;;;;;;19.13;96.21;98849.94;4847122;29;20082;-59
2022/11/17 15:46:47;;;;;;;11.77;5.53;;;;;;;19.13;96.37;98848.06;4847295;29;20084;-59
2022/11/17 15:49:16;;;;;;;11.32;4.88;;;;;;;19.13;97.14;98850.78;4847324;29;20053;-61
2022/11/17 15:51:46;;;;;;;8.35;4.35;;;;;;;19.13;96.49;98842.66;4846114;29;20068;-60
2022/11/17 15:54:17;;;;;;;11.00;5.28;;;;;;;19.13;96.20;98852.63;4846943;29;20058;-60
2022/11/17 15:56:49;;;;;;;10.15;4.68;;;;;;;19.09;96.40;98835.09;4847264;29;20053;-60
2022/11/17 15:59:18;;;;;;;10.05;4.75;;;;;;;19.10;95.82;98842.16;4847056;29;20065;-60
2022/11/17 16:01:48;;;;;;;10.63;5.25;;;;;;;19.06;95.78;98841.69;4845627;29;20061;-59
2022/11/17 16:04:17;;;;;;;11.07;4.97;;;;;;;19.01;96.11;98840.53;4846966;29;20058;-59
2022/11/17 16:06:47;;;;;;;11.82;4.22;;;;;;;18.97;96.39;98839.22;4845743;29;20068;-58
2022/11/17 16:09:17;;;;;;;9.18;4.70;;;;;;;18.96;96.31;98833.00;4846858;29;20050;-60
2022/11/17 16:11:46;;;;;;;11.45;5.35;;;;;;;18.94;95.86;98823.41;4846624;29;20524;-59
2022/11/17 16:14:15;;;;;;;12.52;5.20;;;;;;;18.92;96.43;98820.88;4846222;29;20058;-58
2022/11/17 16:16:46;;;;;;;9.40;4.65;;;;;;;18.83;97.10;98820.09;4846517;29;20515;-58
2022/11/17 16:19:15;;;;;;;10.50;5.03;;;;;;;18.81;97.06;98822.09;4846462;29;20141;-56
2022/11/17 16:21:44;;;;;;;9.85;5.03;;;;;;;18.79;96.82;98824.16;4846373;29;20106;-57
2022/11/17 16:24:14;;;;;;;9.82;4.93;;;;;;;18.74;97.89;98828.44;4846583;29;20077;-57
2022/11/17 16:26:44;;;;;;;10.63;5.10;;;;;;;18.67;98.48;98825.59;4846663;29;20153;-57
2022/11/17 16:29:13;;;;;;;10.10;5.00;;;;;;;18.58;98.17;98829.31;4846541;29;20073;-51
2022/11/17 16:31:42;;;;;;;9.35;5.07;;;;;;;18.53;98.51;98820.94;4846331;29;20120;-52
2022/11/17 19:36:55;;;;;;;34.78;9.07;;;;;;;17.73;95.52;98840.78;5436109;24;19924;-54
2022/11/17 19:39:26;;;;;;;34.20;8.48;;;;;;;17.67;95.86;98841.47;4863441;29;20037;-58
2022/11/17 19:41:57;;;;;;;37.28;9.73;;;;;;;17.65;95.83;98842.63;4865494;29;20046;-55
2022/11/17 19:44:29;;;;;;;46.22;9.55;;;;;;;17.68;95.72;98839.59;4864829;29;20041;-62
2022/11/17 19:46:59;;;;;;;50.10;9.38;;;;;;;17.67;95.91;98852.25;4864314;29;20057;-52
2022/11/17 19:49:28;;;;;;;40.50;9.43;;;;;;;17.63;95.95;98856.28;4864281;29;20384;-49
2022/11/17 19:52:00;;;;;;;54.47;9.73;;;;;;;17.66;95.87;98845.19;4865216;29;20058;-59
2022/11/17 19:54:28;;;;;;;38.78;9.05;;;;;;;17.57;96.20;98835.41;4865875;29;20053;-58
2022/11/17 19:56:57;;;;;;;39.10;8.20;;;;;;;17.63;95.77;98832.00;4866731;29;20057;-56
2022/11/17 19:59:26;;;;;;;44.25;9.55;;;;;;;17.65;95.45;98842.63;4866610;29;20054;-57
2022/11/17 20:01:55;;;;;;;31.58;8.77;;;;;;;17.63;95.42;98848.19;4865246;29;20401;-53
2022/11/17 20:04:24;;;;;;;36.40;8.45;;;;;;;17.66;95.13;98850.56;4865315;29;20064;-53
2022/11/17 20:06:54;;;;;;;33.60;8.35;;;;;;;17.59;95.16;98844.16;4865038;29;20432;-53
2022/11/17 20:09:25;;;;;;;35.95;7.97;;;;;;;17.61;95.30;98846.69;4864737;29;20404;-56
2022/11/17 20:11:54;;;;;;;35.33;8.50;;;;;;;17.63;95.12;98845.50;4865068;29;20055;-57
2022/11/17 20:14:24;;;;;;;33.65;9.05;;;;;;;17.64;94.49;98840.94;4864535;29;20086;-57
2022/11/17 20:16:54;;;;;;;32.55;8.82;;;;;;;17.58;95.07;98855.13;4864924;29;20355;-54
2022/11/17 20:19:23;;;;;;;24.05;8.38;;;;;;;17.54;95.14;98865.41;4864416;29;20093;-54
2022/11/17 20:21:53;;;;;;;29.80;8.20;;;;;;;17.71;94.14;98856.31;4864654;29;20041;-52
2022/11/17 20:24:21;;;;;;;32.38;7.93;;;;;;;17.54;94.76;98830.34;4863391;29;20399;-54
2022/11/17 20:26:53;;;;;;;38.05;8.90;;;;;;;17.53;95.10;98811.66;4863230;29;20437;-53
2022/11/17 20:29:22;;;;;;;28.17;7.88;;;;;;;17.50;95.23;98825.47;4864557;29;20489;-55
2022/11/17 20:31:51;;;;;;;33.85;9.10;;;;;;;17.53;94.90;98844.84;4864067;29;20061;-57
2022/11/17 20:34:22;;;;;;;28.38;8.00;;;;;;;17.50;95.07;98855.97;4864738;29;20065;-51
2022/11/17 20:36:51;;;;;;;30.33;8.10;;;;;;;17.50;95.39;98853.28;4863987;29;20068;-48
2022/11/17 20:39:20;;;;;;;25.55;8.00;;;;;;;17.55;94.76;98853.59;4864052;29;20068;-52
2022/11/17 20:41:50;;;;;;;32.90;7.88;;;;;;;17.49;95.22;98858.84;4864215;29;20078;-52
2022/11/17 20:44:26;;;;;;;26.35;7.57;;;;;;;17.43;95.48;98873.81;4864092;29;20046;-52
2022/11/17 20:46:56;;;;;;;25.23;7.57;;;;;;;17.43;95.61;98869.28;4863617;29;20044;-51
2022/11/17 20:49:27;;;;;;;26.60;8.00;;;;;;;17.45;95.12;98885.28;4863951;29;20053;-52
2022/11/17 20:51:56;;;;;;;28.75;8.30;;;;;;;17.42;95.28;98872.16;4864528;29;20064;-49
2022/11/17 20:54:25;;;;;;;28.38;7.75;;;;;;;17.41;95.24;98868.63;4865166;29;20045;-52
2022/11/17 20:56:54;;;;;;;24.40;7.82;;;;;;;17.47;94.94;98867.09;4863872;29;20045;-54
2022/11/17 20:59:25;;;;;;;24.00;8.02;;;;;;;17.49;94.49;98867.78;4863774;29;20340;-53
2022/11/17 21:01:55;;;;;;;22.83;7.68;;;;;;;17.50;94.47;98858.66;4863789;29;20054;-54
2022/11/17 21:04:24;;;;;;;22.60;7.57;;;;;;;17.52;94.08;98848.56;4863620;29;20636;-49
2022/11/17 21:06:53;;;;;;;28.98;8.75;;;;;;;17.44;94.46;98856.63;4863558;29;20057;-51
2022/11/17 21:09:22;;;;;;;20.88;6.85;;;;;;;17.40;94.73;98848.06;4863872;29;20065;-54
2022/11/17 21:11:57;;;;;;;19.20;7.32;;;;;;;17.44;94.61;98856.63;4864098;29;20054;-56
2022/11/17 21:14:28;;;;;;;23.27;8.13;;;;;;;17.48;94.03;98844.53;4863911;29;20064;-53
2022/11/17 21:16:59;;;;;;;23.30;7.43;;;;;;;17.48;94.03;98841.00;4863731;29;20061;-53
2022/11/17 21:19:28;;;;;;;20.90;7.28;;;;;;;17.54;93.21;98843.81;4863872;29;20345;-50
2022/11/17 21:21:57;;;;;;;21.05;7.53;;;;;;;17.56;93.45;98849.88;4863471;29;20041;-51
2022/11/17 21:24:26;;;;;;;25.05;7.18;;;;;;;17.60;93.05;98851.25;4863675;29;20079;-55
2022/11/17 21:26:56;;;;;;;22.38;7.47;;;;;;;17.56;92.71;98849.03;4863527;29;20049;-53
